Weather observations for the past three days for
Toccoa Le Tourneau Airport
Imperial (Metric)
Date Time (edt) Wind (mph) Vis. (mi.) Weather Sky Cond. Temperature (ºF) Relative Humidity Wind Chill (°F) Heat Index (°F) Pressure Precipitation (in)
Air Dwpt 6 hour altimeter (in) sea level (mb) 1 hr 3 hr 6 hr
Max. Min.
04 00:15 SW 6 10.00 Fair CLR 50 41 71% 48 30.07 0.0
03 23:55 S 3 10.00 Fair CLR 50 41 71% 30.08 0.0
03 23:35 S 3 10.00 Fair CLR 51.8 41 67% 30.08 0.0
03 23:15 W 5 10.00 Fair CLR 53.6 41 63% 30.08 0.0
03 22:55 SW 6 10.00 Fair CLR 53.6 41 63% 30.07 0.0
03 22:35 SW 5 10.00 Fair CLR 55.4 39.2 55% 30.07 0.0
03 22:15 SW 6 10.00 Fair CLR 57.2 39.2 51% 30.06 0.0
03 21:55 SW 7 10.00 Fair CLR 59 37.4 45% 30.05 0.0
03 21:35 SW 8 10.00 Fair CLR 59 37.4 45% 30.04 0.0
03 21:15 SW 9 10.00 Fair CLR 60.8 37.4 42% 30.03 0.0
03 20:55 SW 8 10.00 Fair CLR 62.6 37.4 39% 30.03 0.0
03 20:35 SW 9 10.00 Fair CLR 62.6 37.4 39% 30.03 0.0
03 20:15 SW 10 10.00 Fair CLR 64.4 37.4 37% 30.02 0.0
03 19:55 SW 9 10.00 Fair CLR 66.2 37.4 35% 30.01 0.0
03 19:35 SW 9 10.00 Fair CLR 68 37.4 33% 30.01 0.0
03 19:15 SW 12 10.00 Fair CLR 68 37.4 33% 30.01 0.0
03 18:55 SW 9 10.00 Fair CLR 69.8 37.4 31% 30.02 0.0
03 18:35 SW 13 10.00 Fair CLR 71.6 39.2 31% 30.02 0.0
03 18:15 SW 9 10.00 Fair CLR 71.6 37.4 29% 30.02 0.0
03 17:55 SW 10 G 20 10.00 Fair CLR 71.6 35.6 27% 30.02 0.0
03 17:35 SW 13 10.00 Fair CLR 71.6 35.6 27% 30.02 0.0
03 17:15 SW 8 10.00 Fair CLR 71.6 33.8 25% 30.03 0.0
03 16:55 SW 6 10.00 Fair CLR 71.6 33.8 25% 30.03 0.0
03 16:35 SW 8 10.00 Fair CLR 71.6 32 23% 30.04 0.0
03 16:15 SW 13 G 20 10.00 Fair CLR 71.6 33.8 25% 30.05 0.0
03 15:55 SW 12 G 18 10.00 Fair CLR 71.6 33.8 25% 30.07 0.0
03 15:35 SW 14 10.00 Fair CLR 69.8 33.8 27% 30.08 0.0
03 15:15 W 7 10.00 Fair CLR 69.8 32 25% 30.09 0.0
03 14:55 W 9 10.00 Fair CLR 69.8 33.8 27% 30.1 0.0
03 14:35 SW 9 10.00 Fair CLR 69.8 33.8 27% 30.1 0.0
03 14:15 W 6 10.00 Fair CLR 68 35.6 30% 30.11 0.0
03 13:55 SW 9 10.00 Fair CLR 66.2 39.2 37% 30.11 0.0
03 13:35 SW 9 10.00 Fair CLR 66.2 39.2 37% 30.12 0.0
03 13:15 S 6 10.00 Fair CLR 66.2 37.4 35% 30.12 0.0
03 12:55 S 7 10.00 Partly Cloudy SCT055 66.2 39.2 37% 30.14 0.0
03 12:35 Calm 10.00 Fair CLR 64.4 39.2 40% 30.14 0.0
03 12:15 SW 9 10.00 Fair CLR 62.6 37.4 39% 30.15 0.0
03 11:55 W 3 10.00 Fair CLR 62.6 37.4 39% 30.16 0.0
03 11:35 N 6 10.00 Fair CLR 62.6 37.4 39% 30.16 0.0
03 11:15 SW 3 10.00 Fair CLR 60.8 37.4 42% 30.16 0.0
03 10:55 NW 3 10.00 Fair CLR 59 35.6 42% 30.16 0.0
03 10:35 NE 3 10.00 Fair CLR 59 39.2 48% 30.16 0.0
03 10:15 Calm 10.00 Fair CLR 57.2 41 55% 30.16 0.0
03 09:55 NE 3 10.00 Fair CLR 55.4 41 59% 30.16 0.0
03 09:35 N 5 10.00 Fair CLR 53.6 39.2 58% 30.15 0.0
03 09:15 N 5 10.00 Fair CLR 53.6 39.2 58% 30.15 0.0
03 08:55 NE 5 10.00 Fair CLR 50 41 71% 49 30.15 0.0
03 08:35 NE 5 10.00 Fair CLR 48.2 41 76% 47 30.15 0.0
03 08:15 E 3 10.00 Fair CLR 44.6 41 87% 30.15 0.0
03 07:55 Calm 10.00 Fair CLR 46.4 39.2 76% 30.14 0.0
03 07:35 NW 3 10.00 Fair CLR 46.4 37.4 71% 30.13 0.0
03 07:15 NW 6 10.00 Fair CLR 44.6 37.4 76% 42 30.12 0.0
03 06:55 NW 5 10.00 Fair CLR 39.2 37.4 93% 36 30.12 0.0
03 06:35 NW 5 10.00 Fair CLR 39.2 37.4 93% 36 30.1 0.0
03 06:15 NW 3 10.00 Fair CLR 39.2 37.4 93% 30.1 0.0
03 05:55 Calm 10.00 Fair CLR 41 37.4 87% 30.09 0.0
03 05:35 NW 5 10.00 Fair CLR 41 37.4 87% 38 30.09 0.0
03 05:15 Calm 10.00 Fair CLR 41 37.4 87% 30.09 0.0
03 04:55 NW 3 10.00 Fair CLR 41 37.4 87% 30.09 0.0
03 04:35 NW 5 10.00 Fair CLR 42.8 39.2 87% 41 30.08 0.0
03 04:15 NW 3 10.00 Fair CLR 42.8 37.4 81% 30.08 0.0
03 03:55 W 5 10.00 Fair CLR 41 39.2 93% 38 30.07 0.0
03 03:35 Calm 10.00 Fair CLR 41 37.4 87% 30.07 0.0
03 03:15 Calm 10.00 Fair CLR 41 39.2 93% 30.06 0.0
03 02:55 Calm 10.00 Fair CLR 41 39.2 93% 30.05 0.0
03 02:35 Calm 10.00 Fair CLR 42.8 39.2 87% 30.06 0.0
03 02:15 NW 3 10.00 Fair CLR 42.8 39.2 87% 30.06 0.0
03 01:55 Calm 10.00 Fair CLR 42.8 39.2 87% 30.05 0.0
03 01:35 W 5 10.00 Fair CLR 44.6 39.2 81% 43 30.06 0.0
03 01:15 Calm 10.00 Fair CLR 42.8 39.2 87% 30.06 0.0
03 00:55 W 3 10.00 Fair CLR 44.6 39.2 81% 30.05 0.0
03 00:35 W 3 10.00 Fair CLR 46.4 37.4 71% 30.05 0.0
03 00:15 NW 3 10.00 Fair CLR 46.4 39.2 76% 30.05 0.0
02 23:55 Calm 10.00 Fair CLR 46.4 37.4 71% 30.05 0.0
02 23:35 W 3 10.00 Fair CLR 48.2 39.2 71% 30.04 0.0
02 23:15 W 3 10.00 Fair CLR 48.2 39.2 71% 30.04 0.0
02 22:55 NW 3 10.00 Fair CLR 51.8 37.4 58% 30.03 0.0
02 22:35 NW 3 10.00 Fair CLR 50 37.4 62% 30.02 0.0
02 22:15 N 3 10.00 Fair CLR 53.6 35.6 51% 30.01 0.0
02 21:55 NW 5 10.00 Fair CLR 55.4 33.8 44% 30 0.0
02 21:35 NW 6 10.00 Fair CLR 57.2 32 39% 29.99 0.0
02 21:15 N 5 10.00 Fair CLR 57.2 32 39% 29.98 0.0
02 20:55 NW 6 10.00 Fair CLR 59 32 36% 29.97 0.0
02 20:35 NW 6 10.00 Fair CLR 59 32 36% 29.96 0.0
02 20:15 NW 8 10.00 Fair CLR 60.8 33.8 36% 29.95 0.0
02 19:55 NW 6 10.00 Partly Cloudy SCT060 SCT070 62.6 46.4 56% 29.93 0.0
02 19:35 N 6 10.00 Mostly Cloudy SCT047 BKN060 BKN070 62.6 51.8 68% 29.93 0.0
02 19:15 NE 6 10.00 Mostly Cloudy SCT060 SCT070 BKN090 62.6 51.8 68% 29.92 0.0
02 18:55 NE 6 10.00 Partly Cloudy SCT080 62.6 51.8 68% 29.91 0.0
02 18:35 NE 3 10.00 Partly Cloudy SCT080 62.6 50 64% 29.91 0.0
02 18:15 NE 8 10.00 Partly Cloudy SCT060 SCT070 64.4 50 60% 29.9 0.0
02 17:55 N 10 10.00 Mostly Cloudy BKN042 BKN060 BKN070 64.4 51.8 64% 29.89 0.0
02 17:35 NE 6 10.00 Overcast BKN042 BKN060 OVC110 64.4 50 60% 29.88 0.0
02 17:15 SE 6 10.00 Overcast BKN044 OVC110 68 50 53% 29.87 0.0
02 16:55 SE 7 10.00 Mostly Cloudy BKN046 BKN050 BKN110 64.4 48.2 56% 29.87 0.0
02 16:35 Calm 10.00 Mostly Cloudy SCT050 BKN100 66.2 46.4 49% 29.88 0.0
02 16:15 W 3 10.00 Mostly Cloudy SCT045 SCT050 BKN100 66.2 46.4 49% 29.89 0.0
02 15:55 Calm 10.00 Mostly Cloudy SCT055 BKN090 68 48.2 49% 29.89 0.0
02 15:35 E 3 10.00 Mostly Cloudy BKN080 BKN100 66.2 46.4 49% 29.9 0.0
02 15:15 E 3 10.00 Overcast SCT047 OVC090 64.4 46.4 52% 29.9 0.0
02 14:55 E 6 10.00 Mostly Cloudy SCT043 BKN090 64.4 46.4 52% 29.9 0.0
02 14:35 Calm 10.00 Fair CLR 66.2 46.4 49% 29.91 0.0
02 14:15 E 7 10.00 Partly Cloudy SCT060 SCT085 66.2 48.2 52% 29.92 0.0
02 13:55 NE 7 10.00 Partly Cloudy SCT060 SCT085 66.2 48.2 52% 29.92 0.0
02 13:35 E 7 10.00 Mostly Cloudy BKN060 BKN085 62.6 48.2 60% 29.93 0.0
02 13:15 E 6 10.00 Overcast OVC049 62.6 48.2 60% 29.94 0.0
02 12:55 E 6 10.00 Overcast OVC049 60.8 48.2 63% 29.94 0.0
02 12:35 E 6 10.00 Overcast SCT025 SCT038 OVC049 60.8 48.2 63% 29.95 0.0
02 12:15 E 10 10.00 Overcast BKN025 BKN035 OVC080 60.8 50 68% 29.94 0.0
02 11:55 NE 6 10.00 Mostly Cloudy SCT021 SCT032 BKN049 62.6 51.8 68% 29.95 0.0
02 11:35 E 5 10.00 Partly Cloudy SCT021 SCT032 SCT049 60.8 51.8 72% 29.95 0.0
02 11:15 NE 6 10.00 Overcast BKN049 OVC070 60.8 51.8 72% 29.95 0.0
02 10:55 E 5 10.00 Overcast SCT013 OVC049 60.8 53.6 77% 29.95 0.0
02 10:35 NE 7 10.00 Overcast SCT013 OVC047 59 53.6 82% 29.94 0.0
02 10:15 NE 5 10.00 Overcast BKN047 OVC120 59 53.6 82% 29.94 0.0
02 09:55 E 3 10.00 Mostly Cloudy SCT045 BKN120 57.2 53.6 88% 29.93 0.0
02 09:35 NE 5 10.00 Partly Cloudy SCT041 SCT120 57.2 53.6 88% 29.92 0.0
02 09:15 NE 6 10.00 Partly Cloudy SCT041 SCT120 57.2 51.8 82% 29.92 0.0
02 08:55 NE 3 10.00 Mostly Cloudy SCT039 BKN120 57.2 51.8 82% 29.92 0.0
02 08:35 Calm 10.00 Partly Cloudy SCT100 SCT120 57.2 51.8 82% 29.93 0.0
02 08:15 NE 5 10.00 Overcast OVC110 55.4 51.8 88% 29.92 0.0
02 07:55 Calm 10.00 Mostly Cloudy BKN120 55.4 51.8 88% 29.92 0.0
02 07:35 Calm 10.00 Overcast OVC120 55.4 50 82% 29.92 0.0
02 07:15 Calm 10.00 Overcast OVC120 55.4 51.8 88% 29.9 0.0
02 06:55 Calm 10.00 Overcast OVC120 55.4 50 82% 29.9 0.0
02 06:35 N 3 10.00 Overcast OVC120 55.4 51.8 88% 29.89 0.0
02 06:15 Calm 10.00 Mostly Cloudy BKN120 53.6 53.6 100% 29.9 0.0
02 05:55 NW 5 10.00 Partly Cloudy SCT120 55.4 51.8 88% 29.89 0.0
02 05:35 Calm 10.00 Mostly Cloudy BKN120 55.4 53.6 94% 29.89 0.0
02 05:15 Calm 10.00 Partly Cloudy SCT120 55.4 53.6 94% 29.89 0.0
02 04:55 Calm 10.00 Mostly Cloudy BKN110 55.4 51.8 88% 29.89 0.0
02 04:35 Calm 10.00 Overcast OVC110 55.4 53.6 94% 29.9 0.0
02 04:15 E 3 10.00 Overcast SCT100 OVC110 55.4 51.8 88% 29.9 0.0
02 03:55 S 5 10.00 Light Rain SCT065 BKN075 OVC090 55.4 53.6 94% 29.9 0.0
02 03:35 Calm 10.00 Overcast SCT060 OVC075 57.2 51.8 82% 29.91 0.0
02 03:15 Calm 10.00 Overcast SCT070 OVC090 55.4 53.6 94% 29.9 0.0
02 02:55 Calm 10.00 Overcast OVC100 57.2 50 77% 29.9 0.0
02 02:35 W 3 10.00 Overcast OVC110 57.2 51.8 82% 29.9 0.0
02 02:15 Calm 10.00 Overcast OVC110 57.2 53.6 88% 29.9 0.0
02 01:55 Calm 10.00 Overcast OVC110 57.2 53.6 88% 29.91 0.0
02 01:35 Calm 10.00 Overcast OVC110 57.2 53.6 88% 29.91 0.0
02 01:15 NW 3 10.00 Overcast OVC110 57.2 53.6 88% 29.91 0.0
02 00:55 Calm 10.00 Overcast OVC110 57.2 53.6 88% 29.92 0.0
02 00:35 Calm 10.00 Overcast OVC110 57.2 55.4 94% 29.93 0.0
02 00:15 Calm 10.00 Overcast OVC120 57.2 55.4 94% 29.93 0.0
01 23:55 Calm 10.00 Overcast OVC120 57.2 53.6 88% 29.93 0.0
01 23:35 Calm 10.00 Partly Cloudy SCT120 57.2 53.6 88% 29.94 0.0
01 23:15 N 3 10.00 Fair CLR 59 53.6 82% 29.94 0.0
01 22:55 Calm 10.00 Fair CLR 57.2 53.6 88% 29.94 0.0
01 22:35 NW 3 10.00 Fair CLR 59 53.6 82% 29.94 0.0
01 22:15 Calm 10.00 Fair CLR 59 53.6 82% 29.94 0.0
01 21:55 Calm 10.00 Fair CLR 57.2 53.6 88% 29.93 0.0
01 21:15 SW 5 10.00 Fair CLR 59 53.6 82% 29.93 0.0
01 20:55 Calm 10.00 Fair CLR 59 51.8 77% 29.92 0.0
01 20:35 SW 3 10.00 Fair CLR 60.8 51.8 72% 29.92 0.0
01 20:15 SW 5 10.00 Fair CLR 62.6 51.8 68% 29.91 0.0
01 19:55 SW 6 10.00 Fair CLR 62.6 50 64% 29.91 0.0
01 19:35 SW 5 10.00 Fair CLR 62.6 50 64% 29.91 0.0
01 19:15 S 5 10.00 Fair CLR 62.6 50 64% 29.9 0.0
01 18:55 SW 10 10.00 Fair CLR 64.4 50 60% 29.9 0.0
01 18:35 S 5 10.00 Fair CLR 64.4 50 60% 29.89 0.0
01 18:15 SW 6 10.00 Fair CLR 64.4 50 60% 29.9 0.0
01 17:55 SW 6 10.00 Fair CLR 64.4 48.2 56% 29.91 0.0
01 17:35 SW 6 10.00 Fair CLR 66.2 50 56% 29.91 0.0
01 17:15 SW 6 10.00 Fair CLR 66.2 48.2 52% 29.92 0.0
01 16:55 S 5 10.00 Fair CLR 66.2 48.2 52% 29.93 0.0
01 16:35 SW 5 10.00 Fair CLR 66.2 46.4 49% 29.93 0.0
01 16:15 Calm 10.00 Fair CLR 66.2 48.2 52% 29.94 0.0
01 15:55 S 3 10.00 Partly Cloudy SCT110 64.4 46.4 52% 29.94 0.0
01 15:35 Calm 10.00 Mostly Cloudy BKN110 66.2 46.4 49% 29.95 0.0
01 15:15 N 3 10.00 Partly Cloudy SCT110 64.4 46.4 52% 29.96 0.0
01 14:55 E 3 10.00 Fair CLR 64.4 44.6 49% 29.97 0.0
01 14:35 S 3 10.00 Fair CLR 62.6 44.6 52% 29.97 0.0
01 14:15 SE 3 10.00 Fair CLR 64.4 44.6 49% 29.98 0.0
01 13:55 N 5 10.00 Fair CLR 64.4 44.6 49% 29.98 0.0
01 13:35 E 6 10.00 Fair CLR 62.6 44.6 52% 29.99 0.0
01 13:15 E 3 10.00 Fair CLR 62.6 42.8 49% 30 0.0
01 12:55 E 9 10.00 Fair CLR 62.6 42.8 49% 29.99 0.0
01 12:35 E 8 10.00 Fair CLR 62.6 42.8 49% 30 0.0
01 12:15 E 7 10.00 Fair CLR 62.6 42.8 49% 30 0.0
01 11:55 E 9 10.00 Fair CLR 62.6 42.8 49% 30.01 0.0
01 11:35 NE 6 10.00 Fair CLR 62.6 42.8 49% 30.02 0.0
01 11:15 NE 8 10.00 Fair CLR 60.8 42.8 52% 30.02 0.0
01 10:55 NE 10 10.00 Fair CLR 62.6 42.8 49% 30.02 0.0
01 10:35 E 12 G 17 10.00 Fair CLR 60.8 42.8 52% 30.01 0.0
01 10:15 NE 6 10.00 Fair CLR 59 44.6 59% 30 0.0
01 09:55 E 5 10.00 Fair CLR 57.2 44.6 63% 30 0.0
01 09:35 NE 7 10.00 Fair CLR 57.2 44.6 63% 30 0.0
01 09:15 NE 6 10.00 Fair CLR 57.2 44.6 63% 30 0.0
01 08:55 NE 7 10.00 Fair CLR 55.4 44.6 67% 29.99 0.0
01 08:35 N 7 10.00 Fair CLR 55.4 44.6 67% 29.99 0.0
01 08:15 NE 6 10.00 Fair CLR 55.4 44.6 67% 29.98 0.0
01 07:55 NE 7 10.00 Fair CLR 55.4 44.6 67% 29.97 0.0
01 07:35 NE 7 10.00 Fair CLR 55.4 46.4 72% 29.97 0.0
01 07:15 N 5 10.00 Partly Cloudy SCT120 53.6 48.2 82% 29.97 0.0
01 06:55 N 3 10.00 Partly Cloudy SCT120 53.6 48.2 82% 29.96 0.0
01 06:35 N 5 10.00 Partly Cloudy SCT120 51.8 48.2 88% 29.96 0.0
01 06:15 N 5 10.00 Fair CLR 51.8 48.2 88% 29.95 0.0
01 05:55 Calm 10.00 Fair CLR 55.4 48.2 77% 29.96 0.0
01 05:35 N 6 10.00 Fair CLR 53.6 48.2 82% 29.95 0.0
01 05:15 N 5 10.00 Fair CLR 55.4 48.2 77% 29.95 0.0
01 04:55 Calm 10.00 Fair CLR 55.4 48.2 77% 29.94 0.0
01 04:35 N 3 10.00 Partly Cloudy SCT120 55.4 48.2 77% 29.94 0.0
01 04:15 N 3 10.00 Mostly Cloudy BKN120 55.4 50 82% 29.93 0.0
01 03:55 Calm 10.00 Partly Cloudy SCT120 57.2 48.2 72% 29.93 0.0
01 03:35 E 5 10.00 Mostly Cloudy BKN120 55.4 48.2 77% 29.92 0.0
01 03:15 E 3 10.00 Mostly Cloudy BKN120 55.4 48.2 77% 29.92 0.0
01 02:55 Calm 10.00 Overcast OVC120 55.4 48.2 77% 29.93 0.0
01 02:35 NE 3 10.00 Mostly Cloudy BKN120 57.2 46.4 67% 29.92 0.0
01 02:15 NW 7 10.00 Mostly Cloudy BKN120 55.4 50 82% 29.93 0.0
01 01:55 NW 6 10.00 Partly Cloudy SCT120 57.2 46.4 67% 29.94 0.0
01 01:35 NW 3 10.00 Fair CLR 57.2 46.4 67% 29.94 0.0
01 01:15 NW 3 10.00 Fair CLR 57.2 48.2 72% 29.94 0.0
01 00:55 N 3 10.00 Fair CLR 57.2 48.2 72% 29.93 0.0
01 00:35 N 5 10.00 Fair CLR 57.2 48.2 72% 29.93 0.0
Date Time (edt) Wind (mph) Vis. (mi.) Weather Sky Cond. Air Dwpt Max. Min. Relative Humidity Wind Chill (°F) Heat Index (°F) altimeter (in) sea level (mb) 1 hr 3 hr 6 hr
6 hour
Temperature (ºF) Pressure Precipitation (in)